sensor_id;sensor_type;location;lat;lon;timestamp;P1;durP1;ratioP1;P2;durP2;ratioP2
68870;SDS011;55906;52.278;6.808;2022-11-15T00:00:24;17.90;;;12.10;;
68870;SDS011;55906;52.278;6.808;2022-11-15T00:02:51;16.95;;;10.40;;
68870;SDS011;55906;52.278;6.808;2022-11-15T00:05:18;20.33;;;11.52;;
68870;SDS011;55906;52.278;6.808;2022-11-15T00:07:45;20.80;;;11.80;;
68870;SDS011;55906;52.278;6.808;2022-11-15T00:10:13;18.02;;;11.20;;
68870;SDS011;55906;52.278;6.808;2022-11-15T00:12:40;20.55;;;12.88;;
68870;SDS011;55906;52.278;6.808;2022-11-15T00:15:07;20.92;;;11.90;;
68870;SDS011;55906;52.278;6.808;2022-11-15T00:17:34;23.15;;;12.80;;
68870;SDS011;55906;52.278;6.808;2022-11-15T00:20:00;21.50;;;12.80;;
68870;SDS011;55906;52.278;6.808;2022-11-15T00:22:30;19.50;;;12.25;;
68870;SDS011;55906;52.278;6.808;2022-11-15T00:24:58;19.92;;;12.13;;
68870;SDS011;55906;52.278;6.808;2022-11-15T00:27:25;18.60;;;12.63;;
68870;SDS011;55906;52.278;6.808;2022-11-15T00:29:52;21.47;;;13.40;;
68870;SDS011;55906;52.278;6.808;2022-11-15T00:32:19;21.40;;;13.02;;
68870;SDS011;55906;52.278;6.808;2022-11-15T00:34:45;23.63;;;12.88;;
68870;SDS011;55906;52.278;6.808;2022-11-15T00:37:12;21.65;;;13.48;;
68870;SDS011;55906;52.278;6.808;2022-11-15T00:39:38;23.13;;;12.50;;
68870;SDS011;55906;52.278;6.808;2022-11-15T00:42:05;25.60;;;12.80;;
68870;SDS011;55906;52.278;6.808;2022-11-15T00:44:33;23.48;;;12.85;;
68870;SDS011;55906;52.278;6.808;2022-11-15T00:47:00;23.20;;;13.48;;
68870;SDS011;55906;52.278;6.808;2022-11-15T00:49:26;27.70;;;14.00;;
68870;SDS011;55906;52.278;6.808;2022-11-15T00:51:53;25.30;;;14.25;;
68870;SDS011;55906;52.278;6.808;2022-11-15T00:54:19;24.47;;;14.00;;
68870;SDS011;55906;52.278;6.808;2022-11-15T00:56:46;24.67;;;13.02;;
68870;SDS011;55906;52.278;6.808;2022-11-15T00:59:12;27.55;;;16.08;;
68870;SDS011;55906;52.278;6.808;2022-11-15T01:01:40;33.50;;;14.20;;
68870;SDS011;55906;52.278;6.808;2022-11-15T01:04:07;30.05;;;15.23;;
68870;SDS011;55906;52.278;6.808;2022-11-15T01:06:33;27.33;;;14.63;;
68870;SDS011;55906;52.278;6.808;2022-11-15T01:09:00;28.30;;;15.07;;
68870;SDS011;55906;52.278;6.808;2022-11-15T01:11:26;26.75;;;14.63;;
68870;SDS011;55906;52.278;6.808;2022-11-15T01:13:53;28.58;;;15.55;;
68870;SDS011;55906;52.278;6.808;2022-11-15T01:16:21;30.63;;;15.60;;
68870;SDS011;55906;52.278;6.808;2022-11-15T01:18:50;30.30;;;15.90;;
68870;SDS011;55906;52.278;6.808;2022-11-15T01:21:17;27.92;;;15.63;;
68870;SDS011;55906;52.278;6.808;2022-11-15T01:23:44;28.20;;;14.70;;
68870;SDS011;55906;52.278;6.808;2022-11-15T01:26:12;28.65;;;15.02;;
68870;SDS011;55906;52.278;6.808;2022-11-15T01:28:40;30.47;;;15.27;;
68870;SDS011;55906;52.278;6.808;2022-11-15T01:31:10;25.10;;;14.32;;
68870;SDS011;55906;52.278;6.808;2022-11-15T01:33:39;26.20;;;15.32;;
68870;SDS011;55906;52.278;6.808;2022-11-15T01:36:08;30.58;;;16.00;;
68870;SDS011;55906;52.278;6.808;2022-11-15T01:38:37;26.48;;;15.35;;
68870;SDS011;55906;52.278;6.808;2022-11-15T01:41:04;27.57;;;14.80;;
68870;SDS011;55906;52.278;6.808;2022-11-15T01:43:31;24.77;;;12.82;;
68870;SDS011;55906;52.278;6.808;2022-11-15T01:46:00;26.92;;;14.20;;
68870;SDS011;55906;52.278;6.808;2022-11-15T01:48:31;25.67;;;15.85;;
68870;SDS011;55906;52.278;6.808;2022-11-15T01:50:59;27.35;;;14.85;;
68870;SDS011;55906;52.278;6.808;2022-11-15T01:53:30;23.27;;;13.60;;
68870;SDS011;55906;52.278;6.808;2022-11-15T01:56:00;24.58;;;14.57;;
68870;SDS011;55906;52.278;6.808;2022-11-15T01:58:30;27.88;;;14.25;;
68870;SDS011;55906;52.278;6.808;2022-11-15T02:00:57;31.33;;;15.45;;
68870;SDS011;55906;52.278;6.808;2022-11-15T02:03:27;28.88;;;15.52;;
68870;SDS011;55906;52.278;6.808;2022-11-15T02:05:59;27.47;;;14.77;;
68870;SDS011;55906;52.278;6.808;2022-11-15T02:08:26;27.95;;;16.00;;
68870;SDS011;55906;52.278;6.808;2022-11-15T02:10:54;20.48;;;13.50;;
68870;SDS011;55906;52.278;6.808;2022-11-15T02:13:21;25.05;;;15.57;;
68870;SDS011;55906;52.278;6.808;2022-11-15T02:15:49;24.75;;;14.40;;
68870;SDS011;55906;52.278;6.808;2022-11-15T02:18:26;26.10;;;14.60;;
68870;SDS011;55906;52.278;6.808;2022-11-15T02:21:02;26.23;;;15.63;;
68870;SDS011;55906;52.278;6.808;2022-11-15T02:26:57;24.40;;;15.55;;
68870;SDS011;55906;52.278;6.808;2022-11-15T02:29:51;25.75;;;15.68;;
68870;SDS011;55906;52.278;6.808;2022-11-15T02:32:32;25.93;;;16.07;;
68870;SDS011;55906;52.278;6.808;2022-11-15T02:35:06;29.95;;;15.85;;
68870;SDS011;55906;52.278;6.808;2022-11-15T02:37:43;22.38;;;14.20;;
68870;SDS011;55906;52.278;6.808;2022-11-15T02:40:16;26.38;;;15.52;;
68870;SDS011;55906;52.278;6.808;2022-11-15T02:42:50;24.83;;;14.00;;
68870;SDS011;55906;52.278;6.808;2022-11-15T02:45:39;30.57;;;15.83;;
68870;SDS011;55906;52.278;6.808;2022-11-15T02:48:11;29.70;;;16.50;;
68870;SDS011;55906;52.278;6.808;2022-11-15T02:50:38;35.90;;;15.88;;
68870;SDS011;55906;52.278;6.808;2022-11-15T02:53:06;26.25;;;16.10;;
68870;SDS011;55906;52.278;6.808;2022-11-15T02:55:33;25.25;;;14.68;;
68870;SDS011;55906;52.278;6.808;2022-11-15T02:58:06;25.13;;;14.70;;
68870;SDS011;55906;52.278;6.808;2022-11-15T03:00:47;26.90;;;16.02;;
68870;SDS011;55906;52.278;6.808;2022-11-15T03:06:14;23.80;;;14.95;;
68870;SDS011;55906;52.278;6.808;2022-11-15T03:08:53;26.20;;;15.93;;
68870;SDS011;55906;52.278;6.808;2022-11-15T03:11:25;26.17;;;14.00;;
68870;SDS011;55906;52.278;6.808;2022-11-15T03:13:54;27.30;;;14.93;;
68870;SDS011;55906;52.278;6.808;2022-11-15T03:16:25;22.23;;;14.25;;
68870;SDS011;55906;52.278;6.808;2022-11-15T03:18:59;22.40;;;13.52;;
68870;SDS011;55906;52.278;6.808;2022-11-15T03:21:30;23.23;;;14.73;;
68870;SDS011;55906;52.278;6.808;2022-11-15T03:24:01;22.13;;;13.23;;
68870;SDS011;55906;52.278;6.808;2022-11-15T03:26:31;21.85;;;14.15;;
68870;SDS011;55906;52.278;6.808;2022-11-15T03:29:00;22.67;;;14.05;;
68870;SDS011;55906;52.278;6.808;2022-11-15T03:31:31;24.63;;;13.82;;
68870;SDS011;55906;52.278;6.808;2022-11-15T03:34:16;22.67;;;12.98;;
68870;SDS011;55906;52.278;6.808;2022-11-15T03:36:48;22.53;;;13.73;;
68870;SDS011;55906;52.278;6.808;2022-11-15T03:39:17;22.75;;;13.60;;
68870;SDS011;55906;52.278;6.808;2022-11-15T03:41:47;23.92;;;13.77;;
68870;SDS011;55906;52.278;6.808;2022-11-15T03:44:20;22.52;;;13.55;;
68870;SDS011;55906;52.278;6.808;2022-11-15T03:46:58;21.77;;;13.05;;
68870;SDS011;55906;52.278;6.808;2022-11-15T03:49:31;20.30;;;12.97;;
68870;SDS011;55906;52.278;6.808;2022-11-15T03:51:59;21.33;;;13.38;;
68870;SDS011;55906;52.278;6.808;2022-11-15T03:54:27;20.90;;;12.90;;
68870;SDS011;55906;52.278;6.808;2022-11-15T03:56:54;22.60;;;14.15;;
68870;SDS011;55906;52.278;6.808;2022-11-15T03:59:21;18.17;;;10.98;;
68870;SDS011;55906;52.278;6.808;2022-11-15T04:01:47;20.47;;;13.33;;
68870;SDS011;55906;52.278;6.808;2022-11-15T04:04:14;24.65;;;13.82;;
68870;SDS011;55906;52.278;6.808;2022-11-15T04:06:42;23.15;;;12.38;;
68870;SDS011;55906;52.278;6.808;2022-11-15T04:09:08;21.77;;;13.25;;
68870;SDS011;55906;52.278;6.808;2022-11-15T04:11:35;19.25;;;12.90;;
68870;SDS011;55906;52.278;6.808;2022-11-15T04:14:02;18.03;;;12.37;;
68870;SDS011;55906;52.278;6.808;2022-11-15T04:16:28;18.25;;;13.45;;
68870;SDS011;55906;52.278;6.808;2022-11-15T04:18:55;21.02;;;13.00;;
68870;SDS011;55906;52.278;6.808;2022-11-15T04:21:35;19.48;;;11.75;;
68870;SDS011;55906;52.278;6.808;2022-11-15T04:24:21;20.67;;;12.60;;
68870;SDS011;55906;52.278;6.808;2022-11-15T04:26:47;24.67;;;13.27;;
68870;SDS011;55906;52.278;6.808;2022-11-15T04:29:14;19.60;;;13.23;;
68870;SDS011;55906;52.278;6.808;2022-11-15T04:31:58;20.63;;;12.30;;
68870;SDS011;55906;52.278;6.808;2022-11-15T04:34:25;17.40;;;11.90;;
68870;SDS011;55906;52.278;6.808;2022-11-15T04:36:52;19.23;;;11.85;;
68870;SDS011;55906;52.278;6.808;2022-11-15T04:39:36;20.77;;;12.37;;
68870;SDS011;55906;52.278;6.808;2022-11-15T04:42:03;18.05;;;12.32;;
68870;SDS011;55906;52.278;6.808;2022-11-15T04:44:29;20.58;;;12.52;;
68870;SDS011;55906;52.278;6.808;2022-11-15T04:46:56;18.85;;;10.95;;
68870;SDS011;55906;52.278;6.808;2022-11-15T04:49:23;19.92;;;13.00;;
68870;SDS011;55906;52.278;6.808;2022-11-15T04:51:49;19.47;;;13.10;;
68870;SDS011;55906;52.278;6.808;2022-11-15T04:54:16;19.00;;;11.90;;
68870;SDS011;55906;52.278;6.808;2022-11-15T04:56:44;20.80;;;11.82;;
68870;SDS011;55906;52.278;6.808;2022-11-15T04:59:11;21.52;;;12.85;;
68870;SDS011;55906;52.278;6.808;2022-11-15T05:01:37;19.63;;;12.90;;
68870;SDS011;55906;52.278;6.808;2022-11-15T05:04:04;17.87;;;11.57;;
68870;SDS011;55906;52.278;6.808;2022-11-15T05:06:45;19.15;;;11.55;;
68870;SDS011;55906;52.278;6.808;2022-11-15T05:09:12;18.65;;;11.27;;
68870;SDS011;55906;52.278;6.808;2022-11-15T05:11:39;19.65;;;12.52;;
68870;SDS011;55906;52.278;6.808;2022-11-15T05:14:07;17.45;;;11.10;;
68870;SDS011;55906;52.278;6.808;2022-11-15T05:16:34;17.93;;;11.53;;
68870;SDS011;55906;52.278;6.808;2022-11-15T05:19:01;18.58;;;12.10;;
68870;SDS011;55906;52.278;6.808;2022-11-15T05:21:28;21.65;;;11.73;;
68870;SDS011;55906;52.278;6.808;2022-11-15T05:23:55;17.30;;;11.60;;
68870;SDS011;55906;52.278;6.808;2022-11-15T05:26:21;18.58;;;11.60;;
68870;SDS011;55906;52.278;6.808;2022-11-15T05:28:51;16.27;;;10.90;;
68870;SDS011;55906;52.278;6.808;2022-11-15T05:31:20;17.17;;;10.75;;
68870;SDS011;55906;52.278;6.808;2022-11-15T05:33:47;19.08;;;11.35;;
68870;SDS011;55906;52.278;6.808;2022-11-15T05:36:16;19.60;;;12.30;;
68870;SDS011;55906;52.278;6.808;2022-11-15T05:38:47;18.42;;;11.82;;
68870;SDS011;55906;52.278;6.808;2022-11-15T05:41:15;20.30;;;11.93;;
68870;SDS011;55906;52.278;6.808;2022-11-15T05:43:45;19.48;;;12.10;;
68870;SDS011;55906;52.278;6.808;2022-11-15T05:46:14;19.15;;;11.93;;
68870;SDS011;55906;52.278;6.808;2022-11-15T05:48:43;15.55;;;11.35;;
68870;SDS011;55906;52.278;6.808;2022-11-15T05:51:13;17.17;;;12.02;;
68870;SDS011;55906;52.278;6.808;2022-11-15T05:53:42;20.90;;;12.03;;
68870;SDS011;55906;52.278;6.808;2022-11-15T05:56:10;17.50;;;11.27;;
68870;SDS011;55906;52.278;6.808;2022-11-15T05:58:38;17.48;;;12.10;;
68870;SDS011;55906;52.278;6.808;2022-11-15T06:01:05;16.73;;;11.65;;
68870;SDS011;55906;52.278;6.808;2022-11-15T06:03:31;18.08;;;12.48;;
68870;SDS011;55906;52.278;6.808;2022-11-15T06:05:59;16.10;;;11.27;;
68870;SDS011;55906;52.278;6.808;2022-11-15T06:08:27;18.67;;;12.52;;
68870;SDS011;55906;52.278;6.808;2022-11-15T06:10:53;19.25;;;11.65;;
68870;SDS011;55906;52.278;6.808;2022-11-15T06:13:20;21.48;;;11.98;;
68870;SDS011;55906;52.278;6.808;2022-11-15T06:15:46;20.40;;;11.23;;
68870;SDS011;55906;52.278;6.808;2022-11-15T06:18:13;17.13;;;11.40;;
68870;SDS011;55906;52.278;6.808;2022-11-15T06:20:39;18.48;;;12.30;;
68870;SDS011;55906;52.278;6.808;2022-11-15T06:23:07;19.98;;;13.10;;
68870;SDS011;55906;52.278;6.808;2022-11-15T06:25:34;20.48;;;13.15;;
68870;SDS011;55906;52.278;6.808;2022-11-15T06:28:01;18.75;;;12.63;;
68870;SDS011;55906;52.278;6.808;2022-11-15T06:30:27;16.33;;;11.50;;
68870;SDS011;55906;52.278;6.808;2022-11-15T06:32:58;19.60;;;12.85;;
68870;SDS011;55906;52.278;6.808;2022-11-15T06:35:26;20.30;;;13.38;;
68870;SDS011;55906;52.278;6.808;2022-11-15T06:37:53;20.73;;;12.70;;
68870;SDS011;55906;52.278;6.808;2022-11-15T06:40:21;19.90;;;12.65;;
68870;SDS011;55906;52.278;6.808;2022-11-15T06:42:47;17.90;;;13.17;;
68870;SDS011;55906;52.278;6.808;2022-11-15T06:45:14;18.02;;;12.38;;
68870;SDS011;55906;52.278;6.808;2022-11-15T06:47:44;18.73;;;13.63;;
68870;SDS011;55906;52.278;6.808;2022-11-15T06:50:11;20.83;;;12.95;;
68870;SDS011;55906;52.278;6.808;2022-11-15T06:52:37;19.27;;;12.00;;
68870;SDS011;55906;52.278;6.808;2022-11-15T06:55:04;18.57;;;11.70;;
68870;SDS011;55906;52.278;6.808;2022-11-15T06:57:33;17.77;;;11.35;;
68870;SDS011;55906;52.278;6.808;2022-11-15T07:00:00;19.10;;;11.73;;
68870;SDS011;55906;52.278;6.808;2022-11-15T07:02:27;17.65;;;12.30;;
68870;SDS011;55906;52.278;6.808;2022-11-15T07:04:53;21.92;;;13.90;;
68870;SDS011;55906;52.278;6.808;2022-11-15T07:07:20;18.97;;;11.77;;
68870;SDS011;55906;52.278;6.808;2022-11-15T07:09:47;14.20;;;10.70;;
68870;SDS011;55906;52.278;6.808;2022-11-15T07:12:13;15.38;;;11.55;;
68870;SDS011;55906;52.278;6.808;2022-11-15T07:14:41;16.52;;;11.25;;
68870;SDS011;55906;52.278;6.808;2022-11-15T07:17:08;18.60;;;11.52;;
68870;SDS011;55906;52.278;6.808;2022-11-15T07:19:34;17.23;;;12.30;;
68870;SDS011;55906;52.278;6.808;2022-11-15T07:22:01;13.95;;;10.77;;
68870;SDS011;55906;52.278;6.808;2022-11-15T07:24:27;17.85;;;12.98;;
68870;SDS011;55906;52.278;6.808;2022-11-15T07:26:54;17.90;;;11.35;;
68870;SDS011;55906;52.278;6.808;2022-11-15T07:29:20;15.43;;;9.70;;
68870;SDS011;55906;52.278;6.808;2022-11-15T07:31:48;16.77;;;11.67;;
68870;SDS011;55906;52.278;6.808;2022-11-15T07:34:15;19.67;;;12.38;;
68870;SDS011;55906;52.278;6.808;2022-11-15T07:36:42;15.55;;;11.00;;
68870;SDS011;55906;52.278;6.808;2022-11-15T07:39:09;14.25;;;10.15;;
68870;SDS011;55906;52.278;6.808;2022-11-15T07:41:37;20.40;;;12.85;;
68870;SDS011;55906;52.278;6.808;2022-11-15T07:44:03;17.07;;;11.47;;
68870;SDS011;55906;52.278;6.808;2022-11-15T07:46:30;19.27;;;13.30;;
68870;SDS011;55906;52.278;6.808;2022-11-15T07:48:58;17.15;;;11.95;;
68870;SDS011;55906;52.278;6.808;2022-11-15T07:51:25;18.10;;;13.23;;
68870;SDS011;55906;52.278;6.808;2022-11-15T07:53:52;16.35;;;11.20;;
68870;SDS011;55906;52.278;6.808;2022-11-15T07:56:18;18.63;;;12.77;;
68870;SDS011;55906;52.278;6.808;2022-11-15T07:58:45;15.82;;;11.40;;
68870;SDS011;55906;52.278;6.808;2022-11-15T08:01:12;17.33;;;12.93;;
68870;SDS011;55906;52.278;6.808;2022-11-15T08:03:39;15.05;;;11.05;;
68870;SDS011;55906;52.278;6.808;2022-11-15T08:06:07;17.35;;;11.85;;
68870;SDS011;55906;52.278;6.808;2022-11-15T08:08:33;17.93;;;12.43;;
68870;SDS011;55906;52.278;6.808;2022-11-15T08:11:00;21.13;;;12.93;;
68870;SDS011;55906;52.278;6.808;2022-11-15T08:13:27;17.38;;;12.30;;
68870;SDS011;55906;52.278;6.808;2022-11-15T08:15:56;16.55;;;11.18;;
68870;SDS011;55906;52.278;6.808;2022-11-15T08:18:23;18.80;;;12.13;;
68870;SDS011;55906;52.278;6.808;2022-11-15T08:20:50;17.23;;;12.40;;
68870;SDS011;55906;52.278;6.808;2022-11-15T08:23:18;17.27;;;11.93;;
68870;SDS011;55906;52.278;6.808;2022-11-15T08:25:45;15.70;;;10.60;;
68870;SDS011;55906;52.278;6.808;2022-11-15T08:28:11;19.23;;;12.27;;
68870;SDS011;55906;52.278;6.808;2022-11-15T08:30:39;17.30;;;11.43;;
68870;SDS011;55906;52.278;6.808;2022-11-15T08:33:09;19.30;;;13.13;;
68870;SDS011;55906;52.278;6.808;2022-11-15T08:35:37;16.05;;;10.75;;
68870;SDS011;55906;52.278;6.808;2022-11-15T08:38:04;14.82;;;9.85;;
68870;SDS011;55906;52.278;6.808;2022-11-15T08:40:32;16.15;;;10.95;;
68870;SDS011;55906;52.278;6.808;2022-11-15T08:42:59;16.25;;;11.15;;
68870;SDS011;55906;52.278;6.808;2022-11-15T08:45:27;15.10;;;10.73;;
68870;SDS011;55906;52.278;6.808;2022-11-15T08:47:54;14.05;;;9.82;;
68870;SDS011;55906;52.278;6.808;2022-11-15T08:50:21;16.08;;;9.43;;
68870;SDS011;55906;52.278;6.808;2022-11-15T08:52:48;13.80;;;8.80;;
68870;SDS011;55906;52.278;6.808;2022-11-15T08:55:15;13.70;;;9.13;;
68870;SDS011;55906;52.278;6.808;2022-11-15T08:57:43;11.97;;;9.00;;
68870;SDS011;55906;52.278;6.808;2022-11-15T09:00:11;12.48;;;8.80;;
68870;SDS011;55906;52.278;6.808;2022-11-15T09:02:38;12.20;;;8.73;;
68870;SDS011;55906;52.278;6.808;2022-11-15T09:05:05;12.48;;;8.10;;
68870;SDS011;55906;52.278;6.808;2022-11-15T09:07:33;10.63;;;7.80;;
68870;SDS011;55906;52.278;6.808;2022-11-15T09:10:00;11.60;;;7.73;;
68870;SDS011;55906;52.278;6.808;2022-11-15T09:12:27;11.63;;;7.43;;
68870;SDS011;55906;52.278;6.808;2022-11-15T09:14:55;10.27;;;7.20;;
68870;SDS011;55906;52.278;6.808;2022-11-15T09:17:21;11.43;;;8.02;;
68870;SDS011;55906;52.278;6.808;2022-11-15T09:19:48;15.15;;;8.38;;
68870;SDS011;55906;52.278;6.808;2022-11-15T09:22:15;10.60;;;8.03;;
68870;SDS011;55906;52.278;6.808;2022-11-15T09:24:41;12.52;;;8.95;;
68870;SDS011;55906;52.278;6.808;2022-11-15T09:27:08;13.00;;;9.05;;
68870;SDS011;55906;52.278;6.808;2022-11-15T09:29:34;14.90;;;10.63;;
68870;SDS011;55906;52.278;6.808;2022-11-15T09:32:02;13.57;;;10.75;;
68870;SDS011;55906;52.278;6.808;2022-11-15T09:34:29;14.23;;;10.50;;
68870;SDS011;55906;52.278;6.808;2022-11-15T09:36:56;13.02;;;10.18;;
68870;SDS011;55906;52.278;6.808;2022-11-15T09:39:22;12.52;;;10.55;;
68870;SDS011;55906;52.278;6.808;2022-11-15T09:41:51;14.73;;;9.88;;
68870;SDS011;55906;52.278;6.808;2022-11-15T09:44:47;14.95;;;9.32;;
68870;SDS011;55906;52.278;6.808;2022-11-15T09:47:35;12.60;;;8.77;;
68870;SDS011;55906;52.278;6.808;2022-11-15T09:50:14;11.65;;;8.15;;
68870;SDS011;55906;52.278;6.808;2022-11-15T09:52:55;11.63;;;7.30;;
68870;SDS011;55906;52.278;6.808;2022-11-15T09:55:21;8.95;;;6.50;;
68870;SDS011;55906;52.278;6.808;2022-11-15T09:58:00;10.52;;;7.15;;
68870;SDS011;55906;52.278;6.808;2022-11-15T10:00:36;10.93;;;6.80;;
68870;SDS011;55906;52.278;6.808;2022-11-15T10:03:11;12.07;;;6.82;;
68870;SDS011;55906;52.278;6.808;2022-11-15T10:05:40;8.40;;;5.72;;
68870;SDS011;55906;52.278;6.808;2022-11-15T10:08:12;9.40;;;6.10;;
68870;SDS011;55906;52.278;6.808;2022-11-15T10:10:52;9.45;;;6.28;;
68870;SDS011;55906;52.278;6.808;2022-11-15T10:13:23;9.53;;;5.80;;
68870;SDS011;55906;52.278;6.808;2022-11-15T10:15:53;9.93;;;5.68;;
68870;SDS011;55906;52.278;6.808;2022-11-15T10:18:24;8.82;;;5.65;;
68870;SDS011;55906;52.278;6.808;2022-11-15T10:20:59;8.00;;;5.82;;
68870;SDS011;55906;52.278;6.808;2022-11-15T10:23:35;8.63;;;5.90;;
68870;SDS011;55906;52.278;6.808;2022-11-15T10:26:04;9.50;;;6.83;;
68870;SDS011;55906;52.278;6.808;2022-11-15T10:28:37;8.45;;;5.47;;
68870;SDS011;55906;52.278;6.808;2022-11-15T10:31:10;9.25;;;6.18;;
68870;SDS011;55906;52.278;6.808;2022-11-15T10:33:50;9.68;;;6.15;;
68870;SDS011;55906;52.278;6.808;2022-11-15T10:36:19;10.82;;;6.43;;
68870;SDS011;55906;52.278;6.808;2022-11-15T10:38:52;7.53;;;6.13;;
68870;SDS011;55906;52.278;6.808;2022-11-15T10:41:21;8.48;;;6.13;;
68870;SDS011;55906;52.278;6.808;2022-11-15T10:46:48;9.13;;;5.97;;
68870;SDS011;55906;52.278;6.808;2022-11-15T10:49:31;6.60;;;5.18;;
68870;SDS011;55906;52.278;6.808;2022-11-15T10:51:59;7.80;;;4.90;;
68870;SDS011;55906;52.278;6.808;2022-11-15T10:54:29;8.00;;;4.90;;
68870;SDS011;55906;52.278;6.808;2022-11-15T10:57:04;9.32;;;4.25;;
68870;SDS011;55906;52.278;6.808;2022-11-15T10:59:35;6.72;;;3.95;;
68870;SDS011;55906;52.278;6.808;2022-11-15T11:02:20;7.95;;;3.78;;
68870;SDS011;55906;52.278;6.808;2022-11-15T11:04:56;6.97;;;3.20;;
68870;SDS011;55906;52.278;6.808;2022-11-15T11:07:23;5.60;;;2.90;;
68870;SDS011;55906;52.278;6.808;2022-11-15T11:09:56;7.95;;;3.17;;
68870;SDS011;55906;52.278;6.808;2022-11-15T11:12:27;6.18;;;3.17;;
68870;SDS011;55906;52.278;6.808;2022-11-15T11:14:56;6.93;;;3.20;;
68870;SDS011;55906;52.278;6.808;2022-11-15T11:17:26;5.63;;;3.00;;
68870;SDS011;55906;52.278;6.808;2022-11-15T11:20:04;5.10;;;2.70;;
68870;SDS011;55906;52.278;6.808;2022-11-15T11:22:38;5.32;;;2.70;;
68870;SDS011;55906;52.278;6.808;2022-11-15T11:25:17;5.22;;;2.63;;
68870;SDS011;55906;52.278;6.808;2022-11-15T11:27:53;5.93;;;2.28;;
68870;SDS011;55906;52.278;6.808;2022-11-15T11:30:32;4.90;;;2.17;;
68870;SDS011;55906;52.278;6.808;2022-11-15T11:33:10;7.13;;;2.05;;
68870;SDS011;55906;52.278;6.808;2022-11-15T11:35:45;5.20;;;1.73;;
68870;SDS011;55906;52.278;6.808;2022-11-15T11:38:34;5.07;;;1.98;;
68870;SDS011;55906;52.278;6.808;2022-11-15T11:41:10;4.82;;;2.50;;
68870;SDS011;55906;52.278;6.808;2022-11-15T11:43:48;4.43;;;2.50;;
68870;SDS011;55906;52.278;6.808;2022-11-15T11:46:38;5.38;;;2.45;;
68870;SDS011;55906;52.278;6.808;2022-11-15T11:49:15;3.97;;;2.30;;
68870;SDS011;55906;52.278;6.808;2022-11-15T11:51:49;6.18;;;2.60;;
68870;SDS011;55906;52.278;6.808;2022-11-15T11:54:21;5.45;;;2.80;;
68870;SDS011;55906;52.278;6.808;2022-11-15T11:56:51;4.97;;;2.73;;
68870;SDS011;55906;52.278;6.808;2022-11-15T11:59:25;4.95;;;2.90;;
68870;SDS011;55906;52.278;6.808;2022-11-15T12:01:58;5.20;;;2.83;;
68870;SDS011;55906;52.278;6.808;2022-11-15T12:04:35;4.65;;;2.60;;
68870;SDS011;55906;52.278;6.808;2022-11-15T12:07:08;6.15;;;3.15;;
68870;SDS011;55906;52.278;6.808;2022-11-15T12:09:41;5.63;;;3.30;;
68870;SDS011;55906;52.278;6.808;2022-11-15T12:12:11;7.35;;;3.25;;
68870;SDS011;55906;52.278;6.808;2022-11-15T12:14:45;5.68;;;3.40;;
68870;SDS011;55906;52.278;6.808;2022-11-15T12:17:17;5.07;;;3.10;;
68870;SDS011;55906;52.278;6.808;2022-11-15T12:19:48;6.50;;;3.80;;
68870;SDS011;55906;52.278;6.808;2022-11-15T12:22:18;6.23;;;4.07;;
68870;SDS011;55906;52.278;6.808;2022-11-15T12:24:50;8.15;;;4.60;;
68870;SDS011;55906;52.278;6.808;2022-11-15T12:27:24;6.22;;;4.18;;
68870;SDS011;55906;52.278;6.808;2022-11-15T12:29:58;5.57;;;3.90;;
68870;SDS011;55906;52.278;6.808;2022-11-15T12:32:28;6.15;;;4.93;;
68870;SDS011;55906;52.278;6.808;2022-11-15T12:34:58;5.70;;;3.87;;
68870;SDS011;55906;52.278;6.808;2022-11-15T12:37:44;5.80;;;4.40;;
68870;SDS011;55906;52.278;6.808;2022-11-15T12:46:11;7.63;;;4.13;;
68870;SDS011;55906;52.278;6.808;2022-11-15T12:48:46;6.07;;;4.20;;
68870;SDS011;55906;52.278;6.808;2022-11-15T12:51:19;7.82;;;4.50;;
68870;SDS011;55906;52.278;6.808;2022-11-15T12:53:49;6.63;;;3.67;;
68870;SDS011;55906;52.278;6.808;2022-11-15T12:56:20;7.65;;;4.32;;
68870;SDS011;55906;52.278;6.808;2022-11-15T12:58:49;7.03;;;4.00;;
68870;SDS011;55906;52.278;6.808;2022-11-15T13:04:24;7.60;;;4.28;;
68870;SDS011;55906;52.278;6.808;2022-11-15T13:06:53;7.20;;;3.95;;
68870;SDS011;55906;52.278;6.808;2022-11-15T13:15:30;5.33;;;3.00;;
68870;SDS011;55906;52.278;6.808;2022-11-15T13:18:34;5.50;;;2.65;;
68870;SDS011;55906;52.278;6.808;2022-11-15T13:21:04;8.15;;;3.00;;
68870;SDS011;55906;52.278;6.808;2022-11-15T13:24:01;5.85;;;2.92;;
68870;SDS011;55906;52.278;6.808;2022-11-15T13:26:27;6.00;;;2.60;;
68870;SDS011;55906;52.278;6.808;2022-11-15T13:28:56;4.93;;;2.57;;
68870;SDS011;55906;52.278;6.808;2022-11-15T13:31:28;4.40;;;2.63;;
68870;SDS011;55906;52.278;6.808;2022-11-15T13:34:01;4.22;;;2.20;;
68870;SDS011;55906;52.278;6.808;2022-11-15T13:36:30;5.88;;;2.50;;
68870;SDS011;55906;52.278;6.808;2022-11-15T13:39:00;4.85;;;2.47;;
68870;SDS011;55906;52.278;6.808;2022-11-15T13:41:29;7.13;;;2.67;;
68870;SDS011;55906;52.278;6.808;2022-11-15T13:44:05;4.15;;;2.30;;
68870;SDS011;55906;52.278;6.808;2022-11-15T13:46:46;3.97;;;2.17;;
68870;SDS011;55906;52.278;6.808;2022-11-15T13:49:13;5.53;;;2.13;;
68870;SDS011;55906;52.278;6.808;2022-11-15T13:51:40;4.32;;;1.95;;
68870;SDS011;55906;52.278;6.808;2022-11-15T13:54:14;4.67;;;1.93;;
68870;SDS011;55906;52.278;6.808;2022-11-15T13:56:46;5.32;;;2.22;;
68870;SDS011;55906;52.278;6.808;2022-11-15T13:59:18;5.95;;;2.30;;
68870;SDS011;55906;52.278;6.808;2022-11-15T14:01:53;5.25;;;2.50;;
68870;SDS011;55906;52.278;6.808;2022-11-15T14:04:22;5.68;;;2.20;;
68870;SDS011;55906;52.278;6.808;2022-11-15T14:06:51;4.97;;;2.40;;
68870;SDS011;55906;52.278;6.808;2022-11-15T14:12:23;5.25;;;2.90;;
68870;SDS011;55906;52.278;6.808;2022-11-15T14:17:51;4.10;;;2.60;;
68870;SDS011;55906;52.278;6.808;2022-11-15T14:20:28;4.87;;;2.40;;
68870;SDS011;55906;52.278;6.808;2022-11-15T14:22:58;6.43;;;2.42;;
68870;SDS011;55906;52.278;6.808;2022-11-15T14:25:26;5.28;;;2.67;;
68870;SDS011;55906;52.278;6.808;2022-11-15T14:28:14;9.38;;;2.78;;
68870;SDS011;55906;52.278;6.808;2022-11-15T14:30:56;5.65;;;2.30;;
68870;SDS011;55906;52.278;6.808;2022-11-15T14:33:25;4.67;;;2.50;;
68870;SDS011;55906;52.278;6.808;2022-11-15T14:35:54;6.35;;;2.83;;
68870;SDS011;55906;52.278;6.808;2022-11-15T14:38:22;4.95;;;2.80;;
68870;SDS011;55906;52.278;6.808;2022-11-15T14:40:49;4.95;;;2.50;;
68870;SDS011;55906;52.278;6.808;2022-11-15T14:43:16;5.20;;;2.95;;
68870;SDS011;55906;52.278;6.808;2022-11-15T14:45:42;5.87;;;2.60;;
68870;SDS011;55906;52.278;6.808;2022-11-15T14:48:10;4.68;;;2.70;;
68870;SDS011;55906;52.278;6.808;2022-11-15T14:50:37;4.10;;;2.53;;
68870;SDS011;55906;52.278;6.808;2022-11-15T14:53:04;4.97;;;2.92;;
68870;SDS011;55906;52.278;6.808;2022-11-15T14:55:31;5.97;;;3.00;;
68870;SDS011;55906;52.278;6.808;2022-11-15T14:58:01;7.27;;;3.00;;
68870;SDS011;55906;52.278;6.808;2022-11-15T15:00:29;5.55;;;2.88;;
68870;SDS011;55906;52.278;6.808;2022-11-15T15:02:56;5.95;;;3.17;;
68870;SDS011;55906;52.278;6.808;2022-11-15T15:05:25;6.82;;;3.58;;
68870;SDS011;55906;52.278;6.808;2022-11-15T15:07:56;5.60;;;3.10;;
68870;SDS011;55906;52.278;6.808;2022-11-15T15:10:22;5.57;;;3.03;;
68870;SDS011;55906;52.278;6.808;2022-11-15T15:12:51;6.88;;;3.40;;
68870;SDS011;55906;52.278;6.808;2022-11-15T15:15:18;4.88;;;2.80;;
68870;SDS011;55906;52.278;6.808;2022-11-15T15:17:48;4.93;;;3.20;;